Estación Meteorológica Peña el Pijo (Robertgarden) [ 02/03/23 03:24:45 CET ]

Fecha Hora Presion(HPa) Temp (°C) Humedad % Rocio (°C) Viento ( m/s) Direccion Lluvia 1Hora(mm) Lluvia 24H(mm) LLuvia Total(mm)
2010-Jul-09 01:08:09 1016.500 - - - - NE     125.87
2010-Jul-09 02:08:06 1016.700 - - - - NE     125.87
2010-Jul-09 03:10:11 1015.700 - - - - NE     125.87
2010-Jul-09 04:08:06 1015.500 - - - - NE     125.87
2010-Jul-09 05:01:20 1015.600 - - -         125.87
2010-Jul-09 06:08:09 1015.800 - - - - S     125.87
2010-Jul-09 07:01:12 1016.000 - 53 -         125.87
2010-Jul-09 08:01:15 1016.100 14.9 58 6.7         125.87
2010-Jul-09 09:01:14 1016.200 21.2 52 10.9         125.87
2010-Jul-09 10:01:12 1016.000 27.7 38 12.1         125.87
2010-Jul-09 11:01:13 1015.800 32.6 26 10.4         125.87
2010-Jul-09 12:01:12 1015.800 35.4 23 10.9         125.87
2010-Jul-09 13:01:12 1015.500 37.4 20 10.7         125.87
2010-Jul-09 14:01:11 1015.400 37.7 20 11.0         125.87
2010-Jul-09 15:01:12 1015.200 38.9 19 10.9         125.87
2010-Jul-09 16:01:14 1014.500 40.1 14 6.8         125.87
2010-Jul-09 17:01:16 1014.300 38.9 11 2.8 1.0 SE     125.87
2010-Jul-09 18:01:17 1013.900 37.6 10 0.9         125.87
2010-Jul-09 19:01:16 1014.100 37.2 12 2.6         125.87
2010-Jul-09 20:01:13 1014.300 35.5 13 2.2         125.87
2010-Jul-09 21:01:14 1014.800 - 23 -         125.87
2010-Jul-09 22:08:10 1015.700 - - - - NE     125.87
2010-Jul-09 23:08:05 1016.500 - - - - NE     125.87

Temperatura Máxima:40°    Temperatura Mínima:
Presión Máxima:1016.700 Hpa    Presión Mínima:1013.900 Hpa


Volver